Time;durP1;ratioP1;P1;durP2;ratioP2;P2;SDS_P1;SDS_P2;PMS_P1;PMS_P2;Temp;Humidity;BMP_temperature;BMP_pressure;BME280_temperature;BME280_humidity;BME280_pressure;Samples;Min_cycle;Max_cycle;Signal;HPM_P1;HPM_P2
2022/07/27 00:02:14;;;;;;;5.40;3.83;;;21.80;90.10;;;;;;5020997;28;20478;-81
2022/07/27 00:04:41;;;;;;;5.00;3.08;;;21.80;89.50;;;;;;5020540;28;20041;-82
2022/07/27 00:07:09;;;;;;;5.03;3.67;;;21.70;88.90;;;;;;5025544;28;20133;-81
2022/07/27 00:09:36;;;;;;;4.75;3.38;;;21.70;87.30;;;;;;5029300;28;20077;-82
2022/07/27 00:12:04;;;;;;;3.42;2.80;;;21.60;86.40;;;;;;5027560;28;20053;-83
2022/07/27 00:14:31;;;;;;;4.55;2.97;;;21.60;85.70;;;;;;5010925;28;20069;-82
2022/07/27 00:16:59;;;;;;;5.38;3.22;;;21.60;85.70;;;;;;5008900;28;20045;-82
2022/07/27 00:19:26;;;;;;;6.35;3.42;;;21.50;85.10;;;;;;5021476;28;20149;-82
2022/07/27 00:21:54;;;;;;;5.18;2.97;;;21.50;84.50;;;;;;5021709;28;20061;-82
2022/07/27 00:24:21;;;;;;;6.47;3.13;;;21.50;84.10;;;;;;5025742;28;20055;-81
2022/07/27 00:26:48;;;;;;;5.30;3.03;;;21.50;83.60;;;;;;5027798;28;20038;-83
2022/07/27 00:29:16;;;;;;;5.90;3.05;;;21.50;83.20;;;;;;5011017;28;20564;-82
2022/07/27 00:31:43;;;;;;;4.38;3.25;;;21.60;83.00;;;;;;5021561;28;20045;-82
2022/07/27 00:34:11;;;;;;;4.40;2.85;;;21.50;82.90;;;;;;5017595;28;20045;-82
2022/07/27 00:36:38;;;;;;;5.00;3.25;;;21.60;82.90;;;;;;5025791;28;20103;-82
2022/07/27 00:39:05;;;;;;;3.42;2.70;;;21.50;82.70;;;;;;5039390;28;20064;-82
2022/07/27 00:41:33;;;;;;;4.13;3.00;;;21.50;82.90;;;;;;5005178;28;20172;-82
2022/07/27 00:44:00;;;;;;;4.28;2.92;;;21.40;82.60;;;;;;5029591;28;20041;-83
2022/07/27 00:46:28;;;;;;;4.93;2.90;;;21.40;82.40;;;;;;5004561;28;20056;-82
2022/07/27 00:48:55;;;;;;;4.15;3.10;;;21.40;82.20;;;;;;5008085;28;20130;-82
2022/07/27 00:51:24;;;;;;;4.50;2.85;;;21.30;81.30;;;;;;5023842;28;20441;-82
2022/07/27 00:53:55;;;;;;;3.50;2.80;;;21.30;80.80;;;;;;5025600;28;20054;-83
2022/07/27 00:56:23;;;;;;;4.30;2.40;;;21.20;80.30;;;;;;5018077;28;20050;-82
2022/07/27 00:58:52;;;;;;;5.30;2.80;;;21.20;79.70;;;;;;5016636;28;20041;-82
2022/07/27 01:01:19;;;;;;;3.65;2.45;;;21.20;79.50;;;;;;5029741;28;20054;-83
2022/07/27 01:03:47;;;;;;;3.65;2.63;;;21.10;78.80;;;;;;5010870;28;20037;-82
2022/07/27 01:06:15;;;;;;;3.40;2.38;;;21.10;78.60;;;;;;5004497;28;20046;-81
2022/07/27 01:09:55;;;;;;;4.18;2.58;;;21.10;78.10;;;;;;5024190;28;20050;-83
2022/07/27 01:11:46;;;;;;;5.25;2.30;;;21.10;77.70;;;;;;5042353;28;20041;-83
2022/07/27 01:14:15;;;;;;;7.78;2.50;;;21.10;78.00;;;;;;5027829;28;20075;-82
2022/07/27 01:16:43;;;;;;;4.60;2.30;;;21.10;77.70;;;;;;5036670;28;20053;-82
2022/07/27 01:19:12;;;;;;;3.67;2.10;;;21.10;77.60;;;;;;5029847;28;20045;-83
2022/07/27 01:21:40;;;;;;;3.58;2.08;;;21.10;77.70;;;;;;5023351;28;20045;-83
2022/07/27 01:24:08;;;;;;;7.05;2.38;;;21.10;77.90;;;;;;5030916;28;20490;-82
2022/07/27 01:26:37;;;;;;;3.85;1.88;;;21.10;78.30;;;;;;5029673;28;20457;-84
2022/07/27 01:29:05;;;;;;;3.03;2.13;;;21.10;78.60;;;;;;5027596;28;20071;-83
2022/07/27 01:31:32;;;;;;;6.50;2.75;;;21.10;78.80;;;;;;5018869;28;20087;-82
2022/07/27 01:34:00;;;;;;;4.50;2.60;;;21.10;79.20;;;;;;5028996;28;20045;-82
2022/07/27 01:36:27;;;;;;;3.08;2.50;;;21.10;79.40;;;;;;5025477;28;20041;-82
2022/07/27 01:38:55;;;;;;;3.97;2.17;;;21.10;79.60;;;;;;5025271;28;20426;-82
2022/07/27 01:41:23;;;;;;;3.53;2.30;;;21.10;79.80;;;;;;5019070;28;20045;-81
2022/07/27 01:43:50;;;;;;;5.38;2.53;;;21.00;80.00;;;;;;5030543;28;20131;-82
2022/07/27 01:46:17;;;;;;;3.95;2.25;;;21.10;80.10;;;;;;5025226;28;20046;-80
2022/07/27 01:48:45;;;;;;;3.35;2.17;;;21.10;80.20;;;;;;5039947;28;20052;-83
2022/07/27 01:51:13;;;;;;;4.13;2.60;;;21.00;80.40;;;;;;5009687;28;20045;-83
2022/07/27 01:53:40;;;;;;;5.50;2.75;;;21.00;80.40;;;;;;5025260;28;20502;-82
2022/07/27 01:56:11;;;;;;;4.25;2.30;;;21.00;80.60;;;;;;5021436;28;20045;-82
2022/07/27 01:58:41;;;;;;;4.93;2.72;;;21.00;80.70;;;;;;5025028;28;20042;-81
2022/07/27 02:01:09;;;;;;;4.43;2.47;;;21.10;81.10;;;;;;5046641;28;20033;-82
2022/07/27 02:03:36;;;;;;;3.33;2.50;;;21.00;81.50;;;;;;5024965;28;20049;-82
2022/07/27 02:06:05;;;;;;;4.45;2.67;;;21.00;81.70;;;;;;5021069;28;20506;-81
2022/07/27 02:08:33;;;;;;;3.70;2.78;;;20.90;81.60;;;;;;5023151;28;20052;-81
2022/07/27 02:13:48;;;;;;;4.28;2.65;;;20.90;82.40;;;;;;5032451;28;20065;-81
2022/07/27 02:16:17;;;;;;;3.72;2.60;;;20.80;83.40;;;;;;4991486;28;20038;-82
2022/07/27 02:18:45;;;;;;;5.47;2.97;;;20.80;83.30;;;;;;5021019;28;20050;-81
2022/07/27 02:21:15;;;;;;;4.20;3.05;;;20.80;83.30;;;;;;5016737;28;20044;-81
2022/07/27 02:23:43;;;;;;;4.57;2.75;;;20.80;83.70;;;;;;5024381;28;20045;-81
2022/07/27 02:26:11;;;;;;;4.47;2.80;;;20.80;84.00;;;;;;5024683;28;20490;-81
2022/07/27 02:28:38;;;;;;;5.18;2.80;;;20.70;84.50;;;;;;5005467;28;20045;-82
2022/07/27 02:31:06;;;;;;;7.57;2.90;;;20.70;84.20;;;;;;5021208;28;20046;-82
2022/07/27 02:33:33;;;;;;;3.20;2.47;;;20.60;84.90;;;;;;5014208;28;20045;-79
2022/07/27 02:36:01;;;;;;;3.88;2.50;;;20.60;85.50;;;;;;5022833;28;20046;-81
2022/07/27 02:38:28;;;;;;;4.50;2.35;;;20.60;86.10;;;;;;5008876;28;20048;-82
2022/07/27 02:40:55;;;;;;;5.03;2.45;;;20.60;85.30;;;;;;5019620;28;20042;-82
2022/07/27 02:43:22;;;;;;;4.13;2.33;;;20.50;86.00;;;;;;5024251;28;20049;-81
2022/07/27 02:45:51;;;;;;;5.78;2.40;;;20.50;85.00;;;;;;5026607;28;20552;-82
2022/07/27 02:48:18;;;;;;;4.07;2.78;;;20.50;84.50;;;;;;5024099;28;20140;-83
2022/07/27 02:50:46;;;;;;;4.22;2.72;;;20.50;84.30;;;;;;5008312;28;20152;-83
2022/07/27 02:53:14;;;;;;;5.90;2.65;;;20.40;84.00;;;;;;5031813;28;20049;-83
2022/07/27 02:55:41;;;;;;;5.28;2.45;;;20.40;83.90;;;;;;5026679;28;20049;-82
2022/07/27 02:58:09;;;;;;;7.82;2.75;;;20.40;84.10;;;;;;5025109;28;20103;-83
2022/07/27 03:00:36;;;;;;;4.45;2.60;;;20.40;84.30;;;;;;5024642;28;20042;-83
2022/07/27 03:03:04;;;;;;;6.40;2.97;;;20.40;84.40;;;;;;5026374;28;20073;-82
2022/07/27 03:05:32;;;;;;;3.70;2.42;;;20.30;84.20;;;;;;5026156;28;20049;-82
2022/07/27 03:07:59;;;;;;;4.13;2.83;;;20.30;84.30;;;;;;5021708;28;20111;-83
2022/07/27 03:10:27;;;;;;;4.60;3.15;;;20.30;84.40;;;;;;5027652;28;20045;-83
2022/07/27 03:12:55;;;;;;;5.72;2.47;;;20.30;84.30;;;;;;5019263;28;20045;-82
2022/07/27 03:15:23;;;;;;;4.70;3.00;;;20.30;84.40;;;;;;5027863;28;20046;-82
2022/07/27 03:17:52;;;;;;;5.03;3.03;;;20.30;84.70;;;;;;5030243;28;20177;-82
2022/07/27 03:20:20;;;;;;;4.60;3.17;;;20.20;84.70;;;;;;5013522;28;20065;-82
2022/07/27 03:22:47;;;;;;;5.63;3.13;;;20.20;85.10;;;;;;5011103;28;20037;-82
2022/07/27 03:25:15;;;;;;;5.07;2.38;;;20.20;85.50;;;;;;5023867;28;20041;-83
2022/07/27 03:27:42;;;;;;;5.45;2.90;;;20.30;86.30;;;;;;5026004;28;20041;-80
2022/07/27 03:30:10;;;;;;;4.15;2.97;;;20.30;86.40;;;;;;5025643;28;20041;-81
2022/07/27 03:32:37;;;;;;;6.03;2.70;;;20.30;86.40;;;;;;5025850;28;20050;-82
2022/07/27 03:35:05;;;;;;;6.47;3.13;;;20.30;85.90;;;;;;5020308;28;20544;-83
2022/07/27 03:37:33;;;;;;;5.38;3.47;;;20.30;86.40;;;;;;5027839;28;20045;-81
2022/07/27 03:40:00;;;;;;;5.78;3.13;;;20.20;86.80;;;;;;5023893;28;20554;-83
2022/07/27 03:42:27;;;;;;;6.50;2.97;;;20.20;87.80;;;;;;5025398;28;20042;-80
2022/07/27 03:44:55;;;;;;;9.15;3.55;;;20.20;88.40;;;;;;5020302;28;20136;-81
2022/07/27 03:47:23;;;;;;;10.32;3.58;;;20.20;88.70;;;;;;5006085;28;20034;-83
2022/07/27 03:49:51;;;;;;;8.52;3.40;;;20.20;88.30;;;;;;5024225;28;20046;-83
2022/07/27 03:52:19;;;;;;;6.63;4.00;;;20.20;88.40;;;;;;5021802;28;20046;-83
2022/07/27 03:54:47;;;;;;;8.52;3.20;;;20.20;88.50;;;;;;5022314;28;20057;-82
2022/07/27 03:57:14;;;;;;;9.65;3.58;;;20.20;89.20;;;;;;5020739;28;20046;-82
2022/07/27 03:59:41;;;;;;;5.65;3.22;;;20.20;88.70;;;;;;5021220;28;20046;-81
2022/07/27 04:02:09;;;;;;;6.60;3.22;;;20.20;88.70;;;;;;5021632;28;20246;-81
2022/07/27 04:04:36;;;;;;;6.75;3.58;;;20.20;87.80;;;;;;5028192;28;20573;-83
2022/07/27 04:07:04;;;;;;;6.97;3.55;;;20.20;87.60;;;;;;5032159;28;20046;-82
2022/07/27 04:09:31;;;;;;;8.25;3.20;;;20.20;88.00;;;;;;5023567;28;20056;-81
2022/07/27 04:11:59;;;;;;;20.75;5.75;;;20.30;88.60;;;;;;5020710;28;20069;-81
2022/07/27 04:14:26;;;;;;;17.23;5.07;;;20.30;89.40;;;;;;5021536;28;20045;-81
2022/07/27 04:16:54;;;;;;;13.43;5.55;;;20.30;90.10;;;;;;5027322;28;20136;-81
2022/07/27 04:19:21;;;;;;;11.63;3.88;;;20.40;90.30;;;;;;5025888;28;20038;-79
2022/07/27 04:21:49;;;;;;;7.68;3.85;;;20.40;90.20;;;;;;5030958;28;20044;-79
2022/07/27 04:24:16;;;;;;;9.65;3.63;;;20.40;90.20;;;;;;5008596;28;20053;-81
2022/07/27 04:26:43;;;;;;;4.28;3.58;;;20.40;90.20;;;;;;5029456;28;20095;-77
2022/07/27 04:29:10;;;;;;;7.28;3.25;;;20.40;90.00;;;;;;5023931;28;20088;-78
2022/07/27 04:31:45;;;;;;;7.65;3.30;;;20.50;90.00;;;;;;5012743;28;20041;-77
2022/07/27 04:34:13;;;;;;;4.88;3.72;;;20.50;90.20;;;;;;5026323;28;20402;-78
2022/07/27 04:36:40;;;;;;;5.20;3.53;;;20.50;90.00;;;;;;5027946;28;20494;-78
2022/07/27 04:39:07;;;;;;;8.15;4.05;;;20.50;90.10;;;;;;5029871;28;20052;-80
2022/07/27 04:41:35;;;;;;;10.35;4.00;;;20.50;90.00;;;;;;5030880;28;20043;-80
2022/07/27 04:44:03;;;;;;;7.38;3.75;;;20.50;90.30;;;;;;5027585;28;20057;-81
2022/07/27 04:46:30;;;;;;;6.43;3.67;;;20.60;89.70;;;;;;5026275;28;20095;-81
2022/07/27 04:48:57;;;;;;;9.32;3.88;;;20.50;89.00;;;;;;5029278;28;20037;-81
2022/07/27 04:51:25;;;;;;;6.28;3.55;;;20.60;90.00;;;;;;5027216;28;20062;-80
2022/07/27 04:53:58;;;;;;;7.80;4.20;;;20.70;89.50;;;;;;5026354;28;20041;-81
2022/07/27 04:56:26;;;;;;;7.22;3.95;;;20.70;90.00;;;;;;5044843;28;20061;-80
2022/07/27 04:58:54;;;;;;;4.47;3.25;;;20.80;90.00;;;;;;5025444;28;20045;-81
2022/07/27 05:01:22;;;;;;;9.98;3.15;;;20.80;90.20;;;;;;5039043;28;20041;-81
2022/07/27 05:03:49;;;;;;;9.80;4.38;;;20.90;86.20;;;;;;5025543;28;20105;-81
2022/07/27 05:06:17;;;;;;;5.35;3.38;;;21.00;86.00;;;;;;5026780;28;20061;-81
2022/07/27 05:08:45;;;;;;;5.93;3.85;;;21.10;86.20;;;;;;5011417;28;20076;-82
2022/07/27 05:11:12;;;;;;;7.18;3.90;;;21.10;86.70;;;;;;5040118;28;20718;-82
2022/07/27 05:13:40;;;;;;;6.40;3.90;;;21.20;85.50;;;;;;5024989;28;20045;-82
2022/07/27 05:16:10;;;;;;;7.93;4.30;;;21.40;84.80;;;;;;5031751;28;20065;-82
2022/07/27 05:18:39;;;;;;;4.82;3.35;;;21.50;84.50;;;;;;5038158;28;20076;-81
2022/07/27 05:21:07;;;;;;;5.18;3.30;;;21.60;84.60;;;;;;5026669;28;20056;-81
2022/07/27 05:23:35;;;;;;;6.85;3.88;;;21.70;84.00;;;;;;5028393;28;20041;-82
2022/07/27 05:26:03;;;;;;;7.35;3.33;;;21.90;83.70;;;;;;5023717;28;20041;-82
2022/07/27 05:28:30;;;;;;;5.85;3.33;;;22.00;83.80;;;;;;5028040;28;20050;-81
2022/07/27 05:30:57;;;;;;;6.45;3.28;;;22.10;83.30;;;;;;5009079;28;20448;-82
2022/07/27 05:33:25;;;;;;;5.85;3.35;;;22.30;82.00;;;;;;5027636;28;20069;-82
2022/07/27 05:35:53;;;;;;;4.80;3.00;;;22.50;81.10;;;;;;5025992;28;20045;-81
2022/07/27 05:38:21;;;;;;;4.13;2.70;;;22.60;78.40;;;;;;5022074;28;20088;-78
2022/07/27 05:40:49;;;;;;;4.35;2.55;;;22.60;74.80;;;;;;5025508;28;20056;-81
2022/07/27 05:43:16;;;;;;;5.22;2.50;;;22.60;74.80;;;;;;5005235;28;20067;-83
2022/07/27 05:45:43;;;;;;;5.55;2.83;;;22.90;75.50;;;;;;5025836;28;20079;-79
2022/07/27 05:48:11;;;;;;;4.85;2.45;;;23.10;73.70;;;;;;5021540;28;20046;-79
2022/07/27 05:50:38;;;;;;;3.88;2.78;;;23.10;72.50;;;;;;5018305;28;20042;-82
2022/07/27 05:53:06;;;;;;;4.68;2.72;;;23.30;72.10;;;;;;5006011;28;20056;-77
2022/07/27 05:55:33;;;;;;;4.93;2.42;;;23.30;70.30;;;;;;5021285;28;20076;-81
2022/07/27 05:58:00;;;;;;;4.53;2.55;;;23.50;70.60;;;;;;5021305;28;23048;-79
2022/07/27 06:00:28;;;;;;;4.68;2.28;;;23.50;68.90;;;;;;5019210;28;20046;-82
2022/07/27 06:02:55;;;;;;;3.80;2.10;;;23.80;68.60;;;;;;5016422;28;20046;-83
2022/07/27 06:05:23;;;;;;;5.15;2.42;;;23.90;67.10;;;;;;5026204;28;20053;-81
2022/07/27 06:07:59;;;;;;;5.78;2.45;;;23.80;66.20;;;;;;5026521;28;20041;-80
2022/07/27 06:10:32;;;;;;;3.17;2.17;;;23.80;66.10;;;;;;5034406;28;20463;-80
2022/07/27 06:13:05;;;;;;;5.15;1.90;;;24.00;66.20;;;;;;5021733;28;20855;-81
2022/07/27 06:15:33;;;;;;;3.80;1.75;;;24.10;65.00;;;;;;5019481;28;20037;-79
2022/07/27 06:18:02;;;;;;;2.50;1.67;;;24.20;64.80;;;;;;5018269;28;20125;-80
2022/07/27 06:20:30;;;;;;;2.60;1.67;;;24.30;63.90;;;;;;5020923;28;20779;-79
2022/07/27 06:22:59;;;;;;;4.20;1.88;;;24.60;63.80;;;;;;5004374;28;20042;-79
2022/07/27 06:25:28;;;;;;;4.85;1.95;;;24.80;63.80;;;;;;5020336;28;20401;-82
2022/07/27 06:28:04;;;;;;;4.50;1.73;;;25.00;63.40;;;;;;5018707;28;20127;-80
2022/07/27 06:30:32;;;;;;;2.33;1.50;;;25.10;62.30;;;;;;4990887;28;20193;-81
2022/07/27 06:33:06;;;;;;;3.38;1.40;;;25.20;62.00;;;;;;5018366;28;20138;-80
2022/07/27 06:35:33;;;;;;;4.50;1.92;;;25.30;61.70;;;;;;5017620;28;20049;-81
2022/07/27 06:38:05;;;;;;;3.80;1.90;;;25.30;61.50;;;;;;5021662;28;20057;-80
2022/07/27 06:40:33;;;;;;;4.88;1.45;;;25.10;60.70;;;;;;5032297;28;20114;-79
2022/07/27 06:43:00;;;;;;;2.85;1.58;;;24.90;60.30;;;;;;5021172;28;20045;-83
2022/07/27 06:45:27;;;;;;;3.17;1.45;;;25.10;60.90;;;;;;5019850;28;20056;-80
2022/07/27 06:47:55;;;;;;;3.75;1.45;;;25.20;60.50;;;;;;5026390;28;20061;-81
2022/07/27 06:50:23;;;;;;;2.85;1.55;;;25.50;61.10;;;;;;5025381;28;20073;-83
2022/07/27 06:52:51;;;;;;;3.30;1.38;;;25.80;59.80;;;;;;5024039;28;20572;-82
2022/07/27 06:55:18;;;;;;;5.47;1.70;;;25.60;59.60;;;;;;5009198;28;20073;-82
2022/07/27 06:57:45;;;;;;;3.53;1.70;;;25.70;59.80;;;;;;5025178;28;20037;-81
2022/07/27 07:00:14;;;;;;;2.65;1.30;;;26.00;59.80;;;;;;5024471;28;20045;-80
2022/07/27 07:02:52;;;;;;;5.97;1.40;;;25.70;59.20;;;;;;5024803;28;20076;-82
2022/07/27 07:05:20;;;;;;;5.20;1.10;;;25.90;59.30;;;;;;5020856;28;20703;-84
2022/07/27 07:07:47;;;;;;;3.70;1.25;;;26.30;59.40;;;;;;5019831;28;20080;-82
2022/07/27 07:10:14;;;;;;;3.03;1.35;;;26.30;57.80;;;;;;5017933;28;20040;-80
2022/07/27 07:12:42;;;;;;;5.40;1.15;;;26.40;58.20;;;;;;5020967;28;20607;-83
2022/07/27 07:15:09;;;;;;;3.50;1.55;;;26.60;58.00;;;;;;5020584;28;20041;-81
2022/07/27 07:17:38;;;;;;;6.90;1.73;;;26.60;57.10;;;;;;5025208;28;20099;-83
2022/07/27 07:20:06;;;;;;;4.68;1.40;;;26.50;56.90;;;;;;5027244;28;20049;-82
2022/07/27 07:22:34;;;;;;;6.25;1.52;;;26.50;57.10;;;;;;5025787;28;20046;-79
2022/07/27 07:25:02;;;;;;;6.40;1.08;;;26.40;57.00;;;;;;5025931;28;20445;-82
2022/07/27 07:27:29;;;;;;;4.40;1.10;;;26.60;57.10;;;;;;5025429;28;20053;-82
2022/07/27 07:29:57;;;;;;;3.30;0.85;;;26.90;56.90;;;;;;5023815;28;20552;-81
2022/07/27 07:32:25;;;;;;;5.32;1.20;;;27.00;56.20;;;;;;4998749;28;20108;-81
2022/07/27 07:35:00;;;;;;;2.67;1.10;;;27.10;55.80;;;;;;5021425;28;20182;-80
2022/07/27 07:37:27;;;;;;;1.85;0.90;;;27.10;55.30;;;;;;5010571;28;20576;-80
2022/07/27 07:40:00;;;;;;;7.75;1.10;;;27.20;54.60;;;;;;5026344;28;20052;-81
2022/07/27 07:42:56;;;;;;;2.22;0.98;;;27.20;54.40;;;;;;5033284;28;20069;-81
2022/07/27 07:45:24;;;;;;;3.47;1.10;;;27.30;54.00;;;;;;5017043;28;20589;-80
2022/07/27 07:47:52;;;;;;;1.92;1.20;;;27.40;53.90;;;;;;5025494;28;20068;-79
2022/07/27 07:50:20;;;;;;;3.17;0.95;;;27.40;53.70;;;;;;5042895;28;20041;-82
2022/07/27 07:52:52;;;;;;;2.88;0.68;;;27.60;54.20;;;;;;5028721;28;20053;-81
2022/07/27 07:55:21;;;;;;;1.85;0.80;;;27.50;53.80;;;;;;5042219;28;20061;-79
2022/07/27 07:57:49;;;;;;;5.28;0.93;;;27.60;53.90;;;;;;5034897;28;20061;-80
2022/07/27 08:00:18;;;;;;;2.40;1.15;;;27.30;52.20;;;;;;5026982;28;20057;-79
2022/07/27 08:02:47;;;;;;;1.08;0.73;;;27.30;52.30;;;;;;5028004;28;21833;-83
2022/07/27 08:05:15;;;;;;;2.05;0.90;;;27.50;52.80;;;;;;5009811;28;20177;-79
2022/07/27 08:07:44;;;;;;;1.63;0.95;;;27.60;53.50;;;;;;5026504;28;20072;-77
2022/07/27 08:10:13;;;;;;;1.63;1.05;;;27.80;52.40;;;;;;5030770;28;20120;-81
2022/07/27 08:12:43;;;;;;;2.22;1.08;;;27.60;52.40;;;;;;5019353;28;20046;-80
2022/07/27 08:15:12;;;;;;;3.03;1.08;;;27.60;53.20;;;;;;5016211;28;20045;-82
2022/07/27 08:17:40;;;;;;;1.88;0.88;;;27.60;52.20;;;;;;5025096;28;20041;-82
2022/07/27 08:20:08;;;;;;;2.70;1.30;;;27.80;52.80;;;;;;5024092;28;20042;-78
2022/07/27 08:22:35;;;;;;;4.47;1.58;;;27.60;52.90;;;;;;5027580;28;20137;-80
2022/07/27 08:25:04;;;;;;;2.30;1.00;;;27.80;53.20;;;;;;5024280;28;20053;-81
2022/07/27 08:27:32;;;;;;;1.95;0.90;;;27.90;53.10;;;;;;5010729;28;20037;-84
2022/07/27 08:30:09;;;;;;;2.92;0.90;;;28.00;51.70;;;;;;5022743;28;20050;-81
2022/07/27 08:32:48;;;;;;;2.58;0.93;;;28.00;52.00;;;;;;5016444;28;20110;-80
2022/07/27 08:35:21;;;;;;;4.25;1.50;;;28.10;52.00;;;;;;5026848;28;20402;-82
2022/07/27 08:37:48;;;;;;;2.90;1.23;;;28.00;51.50;;;;;;5026047;28;20057;-80
2022/07/27 08:40:17;;;;;;;1.30;0.93;;;28.10;52.20;;;;;;5024898;28;20125;-83
2022/07/27 08:43:05;;;;;;;2.22;0.90;;;28.10;52.80;;;;;;5027663;28;20151;-81
2022/07/27 08:45:34;;;;;;;3.00;1.50;;;28.20;52.90;;;;;;5028656;28;20045;-79
2022/07/27 08:48:02;;;;;;;5.00;1.48;;;28.30;52.70;;;;;;5028455;28;20091;-83
2022/07/27 08:50:30;;;;;;;2.85;1.20;;;28.20;53.20;;;;;;5022448;28;20092;-83
2022/07/27 08:53:06;;;;;;;2.20;1.38;;;28.30;53.30;;;;;;4999767;28;20064;-81
2022/07/27 08:55:40;;;;;;;2.65;1.42;;;28.20;53.00;;;;;;5008443;28;20054;-79
2022/07/27 08:58:09;;;;;;;2.40;1.35;;;28.20;53.80;;;;;;5022668;28;20500;-83
2022/07/27 09:00:39;;;;;;;3.38;1.40;;;28.50;53.90;;;;;;5028585;28;20044;-79
2022/07/27 09:03:10;;;;;;;2.60;1.70;;;28.40;53.40;;;;;;5015176;28;20045;-88
2022/07/27 09:05:47;;;;;;;2.33;1.23;;;28.50;53.30;;;;;;5028670;28;20055;-81
2022/07/27 09:08:17;;;;;;;2.38;1.35;;;28.40;52.60;;;;;;5024367;28;20038;-86
2022/07/27 09:10:44;;;;;;;3.17;1.17;;;28.40;53.90;;;;;;5029321;28;20735;-79
2022/07/27 09:13:19;;;;;;;2.33;1.42;;;28.40;53.00;;;;;;5014257;28;20551;-79
2022/07/27 09:15:52;;;;;;;2.42;1.38;;;28.50;52.50;;;;;;5011138;28;20051;-78
2022/07/27 09:18:40;;;;;;;4.28;1.20;;;28.50;53.10;;;;;;5021446;28;20148;-82
2022/07/27 09:21:22;;;;;;;2.47;1.38;;;28.50;52.50;;;;;;5025389;28;20057;-82
2022/07/27 09:23:54;;;;;;;4.35;1.27;;;28.50;51.90;;;;;;5023306;28;20046;-79
2022/07/27 09:26:22;;;;;;;1.50;1.13;;;28.60;49.60;;;;;;5019019;28;20405;-80
2022/07/27 09:29:04;;;;;;;2.30;1.13;;;28.50;50.10;;;;;;5027827;28;20050;-80
2022/07/27 09:31:42;;;;;;;2.83;1.13;;;28.60;51.50;;;;;;5026578;28;20042;-80
2022/07/27 09:34:11;;;;;;;5.25;1.30;;;28.60;49.80;;;;;;5025972;28;20096;-81
2022/07/27 09:36:53;;;;;;;1.55;1.00;;;28.60;50.70;;;;;;5039242;28;20049;-81
2022/07/27 09:39:23;;;;;;;3.97;1.20;;;28.70;51.60;;;;;;5008173;28;20050;-82
2022/07/27 09:41:52;;;;;;;1.95;1.13;;;28.70;51.70;;;;;;5025881;28;20061;-80
2022/07/27 09:44:39;;;;;;;3.97;1.43;;;28.70;50.90;;;;;;5020967;28;20081;-79
2022/07/27 09:47:21;;;;;;;2.42;1.33;;;28.80;51.00;;;;;;5018760;28;20092;-80
2022/07/27 09:49:49;;;;;;;2.83;1.20;;;28.80;52.10;;;;;;5021296;28;20072;-82
2022/07/27 09:52:24;;;;;;;1.90;1.00;;;28.80;49.80;;;;;;5024479;28;20502;-79
2022/07/27 09:54:52;;;;;;;3.38;1.02;;;29.00;50.20;;;;;;5022304;28;20065;-79
2022/07/27 09:57:19;;;;;;;3.17;1.20;;;29.10;50.00;;;;;;5023044;28;20046;-79
2022/07/27 09:59:47;;;;;;;2.30;1.27;;;28.90;48.00;;;;;;5005094;28;20042;-80
2022/07/27 10:02:15;;;;;;;2.40;1.20;;;28.50;48.70;;;;;;5016351;28;20046;-79
2022/07/27 10:04:43;;;;;;;3.72;1.30;;;28.50;49.10;;;;;;5024373;28;20136;-82
2022/07/27 10:07:11;;;;;;;2.78;1.20;;;28.70;50.40;;;;;;5021832;28;20037;-80
2022/07/27 10:09:40;;;;;;;2.75;1.40;;;28.70;50.30;;;;;;5026261;28;20054;-80
2022/07/27 10:12:08;;;;;;;4.88;1.10;;;28.70;51.90;;;;;;5025070;28;20038;-79
2022/07/27 10:14:35;;;;;;;3.28;1.30;;;28.80;52.80;;;;;;5022655;28;20053;-78
2022/07/27 10:17:04;;;;;;;2.35;1.23;;;28.80;49.70;;;;;;5040393;28;20037;-79
2022/07/27 10:19:46;;;;;;;1.95;1.40;;;28.70;49.60;;;;;;5024984;28;20037;-85
2022/07/27 10:22:14;;;;;;;3.67;1.45;;;28.80;50.60;;;;;;5016936;28;20045;-79
2022/07/27 10:24:42;;;;;;;3.40;1.40;;;28.90;49.70;;;;;;5020747;28;20030;-78
2022/07/27 10:27:29;;;;;;;2.63;1.17;;;29.00;51.30;;;;;;5026840;28;20050;-89
2022/07/27 10:29:57;;;;;;;2.05;1.10;;;29.00;47.70;;;;;;5010664;28;20052;-79
2022/07/27 10:32:29;;;;;;;3.92;1.20;;;29.00;49.20;;;;;;5023820;28;20581;-80
2022/07/27 10:34:58;;;;;;;3.08;1.35;;;28.90;47.90;;;;;;4997999;28;20502;-79
2022/07/27 10:37:31;;;;;;;1.77;1.15;;;29.00;48.30;;;;;;5003818;28;20099;-78
2022/07/27 10:43:15;;;;;;;2.33;1.23;;;29.10;47.80;;;;;;5036750;28;20648;-78
2022/07/27 10:45:44;;;;;;;;;;;29.10;48.70;;;;;;5030775;28;20124;-83
2022/07/27 10:48:38;;;;;;;4.18;1.60;;;29.10;48.50;;;;;;5022486;28;19935;-78
2022/07/27 10:51:15;;;;;;;3.13;1.60;;;29.00;48.20;;;;;;5024093;28;20760;-78
2022/07/27 10:53:44;;;;;;;2.10;1.40;;;29.00;48.10;;;;;;5025269;28;20049;-77
2022/07/27 10:56:45;;;;;;;3.50;1.50;;;29.10;48.40;;;;;;5007561;28;20501;-79
2022/07/27 10:59:13;;;;;;;1.58;1.27;;;29.10;46.40;;;;;;5032526;28;20140;-78
2022/07/27 11:01:57;;;;;;;4.40;1.40;;;29.00;48.10;;;;;;5018363;28;20064;-79
2022/07/27 11:04:25;;;;;;;2.03;1.33;;;28.80;46.70;;;;;;5025544;28;20053;-79
2022/07/27 11:06:59;;;;;;;2.30;1.33;;;28.90;46.70;;;;;;5022686;28;20106;-78
2022/07/27 11:09:51;;;;;;;3.25;1.17;;;29.00;48.10;;;;;;5018007;28;20403;-79
2022/07/27 11:12:30;;;;;;;2.53;1.20;;;29.10;47.20;;;;;;5022546;28;20132;-78
2022/07/27 11:14:59;;;;;;;1.88;1.42;;;29.20;47.60;;;;;;5026042;28;20042;-79
2022/07/27 11:17:28;;;;;;;4.00;1.20;;;29.40;44.30;;;;;;5027316;28;20050;-78
2022/07/27 11:20:21;;;;;;;6.35;1.42;;;29.40;44.30;;;;;;5027352;28;20041;-80
2022/07/27 11:22:49;;;;;;;3.42;1.88;;;29.40;44.70;;;;;;5005873;28;20052;-78
2022/07/27 11:25:37;;;;;;;2.65;1.30;;;29.50;44.90;;;;;;5008333;28;20053;-78
2022/07/27 11:28:08;;;;;;;3.22;1.60;;;29.40;44.30;;;;;;5023974;28;20095;-79
2022/07/27 11:30:35;;;;;;;2.45;1.45;;;29.10;44.10;;;;;;5024972;28;20516;-78
2022/07/27 11:33:04;;;;;;;2.70;1.40;;;29.30;45.60;;;;;;5021597;28;20126;-79
2022/07/27 11:35:31;;;;;;;4.22;1.60;;;29.40;44.40;;;;;;5044595;28;20075;-78
2022/07/27 11:38:04;;;;;;;1.90;1.38;;;29.40;44.70;;;;;;5036566;28;20294;-79
2022/07/27 11:40:47;;;;;;;2.05;1.40;;;29.50;45.00;;;;;;5027200;28;20068;-78
2022/07/27 11:43:37;;;;;;;2.30;1.20;;;29.70;45.60;;;;;;5020926;28;20041;-79
2022/07/27 11:46:21;;;;;;;4.35;1.60;;;29.70;46.00;;;;;;5024086;28;20140;-78
2022/07/27 11:48:55;;;;;;;3.08;1.85;;;30.00;46.40;;;;;;5027447;28;20422;-80
2022/07/27 11:51:39;;;;;;;3.17;1.90;;;30.00;46.20;;;;;;5018846;28;20042;-79
2022/07/27 11:54:28;;;;;;;2.40;1.48;;;29.70;43.20;;;;;;5025745;28;20316;-79
2022/07/27 11:57:02;;;;;;;3.55;1.60;;;29.70;41.50;;;;;;5031693;28;20045;-82
2022/07/27 11:59:38;;;;;;;2.63;1.38;;;29.90;44.30;;;;;;5016726;28;20046;-80
2022/07/27 12:02:18;;;;;;;1.42;1.23;;;29.90;44.90;;;;;;5033014;28;20046;-78
2022/07/27 12:04:48;;;;;;;2.60;1.40;;;30.10;44.60;;;;;;5039040;28;20053;-79
2022/07/27 12:07:18;;;;;;;2.20;1.30;;;30.00;44.70;;;;;;5025687;28;20049;-79
2022/07/27 12:09:55;;;;;;;2.88;1.50;;;29.90;45.90;;;;;;5032228;28;20060;-78
2022/07/27 12:12:28;;;;;;;2.05;1.48;;;30.00;44.80;;;;;;5014363;28;20053;-79
2022/07/27 12:15:01;;;;;;;2.17;1.15;;;30.00;45.60;;;;;;5023331;28;20045;-78
2022/07/27 12:17:58;;;;;;;2.03;1.05;;;30.00;44.60;;;;;;5025983;28;20049;-80
2022/07/27 12:20:33;;;;;;;2.60;1.23;;;30.00;45.60;;;;;;5029144;28;20053;-79
2022/07/27 12:23:06;;;;;;;2.80;1.58;;;30.00;43.90;;;;;;5005500;28;20123;-79
2022/07/27 12:25:35;;;;;;;2.78;1.15;;;30.10;45.20;;;;;;5028077;28;20045;-79
2022/07/27 12:28:05;;;;;;;3.17;1.13;;;30.10;43.80;;;;;;5040879;28;20402;-79
2022/07/27 12:30:44;;;;;;;1.75;1.17;;;30.30;44.40;;;;;;5019525;28;20049;-84
2022/07/27 12:33:23;;;;;;;2.95;1.42;;;30.30;44.40;;;;;;5003475;28;20100;-79
2022/07/27 12:35:51;;;;;;;1.52;1.20;;;30.30;43.70;;;;;;5028993;28;20081;-78
2022/07/27 12:38:18;;;;;;;2.65;1.30;;;30.20;42.90;;;;;;5026633;28;20577;-78
2022/07/27 12:40:51;;;;;;;4.00;1.63;;;30.20;44.50;;;;;;5028901;28;20060;-79
2022/07/27 12:43:26;;;;;;;2.97;1.58;;;30.40;43.40;;;;;;5025054;28;20041;-79
2022/07/27 12:45:54;;;;;;;3.25;1.75;;;30.30;43.30;;;;;;5041221;28;20042;-80
2022/07/27 12:48:24;;;;;;;2.35;1.70;;;30.30;43.10;;;;;;5008080;28;20050;-79
2022/07/27 12:51:01;;;;;;;3.35;2.60;;;30.40;41.10;;;;;;5006591;28;20054;-79
2022/07/27 12:53:29;;;;;;;4.20;2.53;;;30.60;40.60;;;;;;5026387;28;20184;-79
2022/07/27 12:56:03;;;;;;;3.17;2.20;;;30.60;40.80;;;;;;5014209;28;20077;-82
2022/07/27 12:58:31;;;;;;;5.25;2.88;;;30.60;39.90;;;;;;5022560;28;20117;-81
2022/07/27 13:00:59;;;;;;;3.42;2.15;;;30.70;40.60;;;;;;5030364;28;20132;-85
2022/07/27 13:03:27;;;;;;;3.20;2.15;;;30.70;39.40;;;;;;5013091;28;20156;-79
2022/07/27 13:05:54;;;;;;;3.17;2.50;;;30.70;39.80;;;;;;5044683;28;20103;-79
2022/07/27 13:08:22;;;;;;;5.45;2.08;;;30.70;40.70;;;;;;5025812;28;20053;-80
2022/07/27 13:10:52;;;;;;;2.83;2.45;;;30.60;39.80;;;;;;5021332;28;20042;-78